Time;durP1;ratioP1;P1;durP2;ratioP2;P2;SDS_P1;SDS_P2;PMS_P1;PMS_P2;Temp;Humidity;BMP_temperature;BMP_pressure;BME280_temperature;BME280_humidity;BME280_pressure;Samples;Min_cycle;Max_cycle;Signal;HPM_P1;HPM_P2
2023/06/23 04:17:17;;;;;;;11.43;3.90;;;17.20;99.90;;;;;;4895842;23;20048;-96
2023/06/23 04:20:43;;;;;;;;;;;;;;;;;;;;;
2023/06/23 06:36:27;;;;;;;;;;;;;;;;;;;;;
2023/06/23 06:39:53;;;;;;;11.20;5.55;;;19.20;99.90;;;;;;4866313;29;20061;-95
2023/06/23 06:49:31;;;;;;;10.32;5.38;;;19.80;99.90;;;;;;5376919;23;20061;-88
2023/06/23 06:52:39;;;;;;;8.93;4.82;;;20.00;99.90;;;;;;4857273;29;20104;-91
2023/06/23 07:26:56;;;;;;;8.13;3.83;;;21.20;99.90;;;;;;4845412;29;20517;-86
2023/06/23 07:29:22;;;;;;;7.20;4.10;;;21.40;99.90;;;;;;4825976;29;20054;-87
2023/06/23 07:31:58;;;;;;;6.47;3.53;;;21.40;99.90;;;;;;4853459;29;20052;-87
2023/06/23 07:34:28;;;;;;;5.88;3.00;;;21.50;99.90;;;;;;4825447;29;20046;-88
2023/06/23 07:58:07;;;;;;;7.32;2.67;;;22.10;99.90;;;;;;4847709;29;20057;-93
2023/06/23 08:04:27;;;;;;;5.28;2.67;;;22.30;99.90;;;;;;4933130;23;20095;-93
2023/06/23 08:07:06;;;;;;;5.20;2.40;;;22.30;99.90;;;;;;4850445;29;20053;-91
2023/06/23 08:10:16;;;;;;;6.32;2.35;;;22.40;99.90;;;;;;4838542;29;20048;-92
2023/06/23 08:12:42;;;;;;;4.78;2.47;;;22.60;99.90;;;;;;4840565;29;20042;-92
2023/06/23 08:15:08;;;;;;;5.43;2.30;;;22.50;99.90;;;;;;4826151;29;20495;-88
2023/06/23 08:17:37;;;;;;;4.30;2.13;;;22.60;99.90;;;;;;4822580;29;20050;-91
2023/06/23 08:20:04;;;;;;;3.80;2.00;;;22.60;99.90;;;;;;4827453;29;20053;-91
2023/06/23 08:22:29;;;;;;;4.72;2.70;;;22.60;99.90;;;;;;4828007;29;20086;-92
2023/06/23 08:24:55;;;;;;;7.20;2.95;;;22.70;99.90;;;;;;4821930;29;20141;-90
2023/06/23 08:27:21;;;;;;;9.20;2.25;;;22.70;99.90;;;;;;4830721;29;20524;-92
2023/06/23 08:29:59;;;;;;;4.60;2.60;;;22.80;99.90;;;;;;4817681;29;20506;-91
2023/06/23 08:32:38;;;;;;;4.00;2.03;;;22.80;99.90;;;;;;4845963;29;20057;-92
2023/06/23 08:35:04;;;;;;;6.03;2.45;;;23.00;99.90;;;;;;4826485;29;20038;-92
2023/06/23 08:37:33;;;;;;;6.13;2.63;;;23.10;99.90;;;;;;4818250;29;20132;-92
2023/06/23 08:40:01;;;;;;;6.38;2.20;;;23.10;99.90;;;;;;4827813;29;20103;-91
2023/06/23 08:42:39;;;;;;;4.32;2.30;;;23.10;99.90;;;;;;4836994;29;20054;-90
2023/06/23 08:45:12;;;;;;;8.65;2.22;;;23.50;99.90;;;;;;4819790;29;20021;-91
2023/06/23 08:47:47;;;;;;;5.25;2.50;;;23.30;99.90;;;;;;4827164;29;20057;-92
2023/06/23 08:50:13;;;;;;;5.45;2.15;;;23.30;99.90;;;;;;4829339;29;20132;-89
2023/06/23 08:52:48;;;;;;;4.47;2.00;;;23.40;99.90;;;;;;4824779;29;20046;-91
2023/06/23 08:55:15;;;;;;;4.97;2.50;;;23.40;99.90;;;;;;4821491;29;20053;-91
2023/06/23 08:57:41;;;;;;;4.90;2.28;;;23.40;99.90;;;;;;4824723;29;20037;-88
2023/06/23 09:00:08;;;;;;;5.82;2.55;;;23.50;99.90;;;;;;4819696;29;20509;-91
2023/06/23 09:02:34;;;;;;;8.00;3.20;;;23.50;99.90;;;;;;4825417;29;20132;-91
2023/06/23 09:05:00;;;;;;;5.75;2.83;;;23.60;99.90;;;;;;4843335;29;20108;-89
2023/06/23 09:07:28;;;;;;;5.72;3.15;;;23.60;99.90;;;;;;4846879;29;20486;-90
2023/06/23 09:09:55;;;;;;;6.88;2.83;;;23.50;99.90;;;;;;4847555;29;20068;-90
2023/06/23 09:12:21;;;;;;;6.35;2.83;;;23.50;99.90;;;;;;4845918;29;20080;-91
2023/06/23 09:14:49;;;;;;;5.82;2.95;;;23.50;99.90;;;;;;4848695;29;20433;-90
2023/06/23 09:17:16;;;;;;;10.10;2.67;;;23.60;99.90;;;;;;4847607;29;20120;-91
2023/06/23 09:19:50;;;;;;;8.73;3.60;;;23.60;99.90;;;;;;4834124;29;20072;-92
2023/06/23 09:22:28;;;;;;;4.78;2.70;;;23.70;99.90;;;;;;4847723;29;20085;-91
2023/06/23 09:24:54;;;;;;;7.43;3.45;;;23.80;99.90;;;;;;4847775;29;20084;-92
2023/06/23 09:27:20;;;;;;;3.92;2.53;;;23.90;99.90;;;;;;4847554;29;20084;-92
2023/06/23 09:30:04;;;;;;;6.78;2.65;;;24.00;99.90;;;;;;4843198;29;20091;-90
2023/06/23 09:32:32;;;;;;;4.85;2.58;;;24.10;99.90;;;;;;4858001;29;20040;-91
2023/06/23 09:34:58;;;;;;;5.80;2.55;;;24.20;99.90;;;;;;4847254;29;20112;-92
2023/06/23 09:37:25;;;;;;;8.05;2.60;;;24.20;99.90;;;;;;4843159;29;20454;-92
2023/06/23 09:39:55;;;;;;;4.10;2.22;;;24.20;99.90;;;;;;4847111;29;20053;-92
2023/06/23 09:42:22;;;;;;;10.73;2.38;;;24.30;99.90;;;;;;4854225;29;20108;-90
2023/06/23 09:44:49;;;;;;;4.65;2.22;;;24.40;99.90;;;;;;4846775;29;20049;-92
2023/06/23 09:47:16;;;;;;;3.85;1.92;;;24.40;99.90;;;;;;4846908;29;20477;-89
2023/06/23 09:49:51;;;;;;;4.10;2.10;;;24.40;99.90;;;;;;4846413;29;20545;-92
2023/06/23 09:52:39;;;;;;;5.65;2.20;;;24.50;99.90;;;;;;4863300;29;20143;-89
2023/06/23 09:55:52;;;;;;;5.07;2.38;;;24.40;99.90;;;;;;4836487;29;20128;-95
2023/06/23 09:58:23;;;;;;;4.43;2.10;;;24.40;99.90;;;;;;4805989;29;20050;-91
2023/06/23 10:01:00;;;;;;;4.75;2.22;;;24.60;99.90;;;;;;4845437;29;20133;-91
2023/06/23 10:03:34;;;;;;;5.10;2.08;;;24.60;99.90;;;;;;4845486;29;20132;-95
2023/06/23 10:06:06;;;;;;;3.60;2.00;;;24.60;99.90;;;;;;4845725;29;20067;-91
2023/06/23 10:34:50;;;;;;;5.00;1.63;;;24.60;99.90;;;;;;5068512;23;20144;-96
2023/06/23 10:40:36;;;;;;;6.97;1.88;;;24.80;99.90;;;;;;4795588;29;20049;-95
2023/06/23 10:44:21;;;;;;;4.70;2.25;;;24.80;99.90;;;;;;4763861;29;20478;-96
2023/06/23 10:47:17;;;;;;;5.35;2.72;;;24.80;99.90;;;;;;4800515;29;20055;-96
2023/06/23 10:50:09;;;;;;;;;;;;;;;;;;;;;
2023/06/23 10:53:21;;;;;;;4.25;2.13;;;24.40;99.90;;;;;;4830103;29;20061;-96
2023/06/23 10:56:00;;;;;;;4.20;2.30;;;24.40;99.90;;;;;;4863370;29;20057;-96
2023/06/23 11:07:50;;;;;;;6.65;3.65;;;24.70;99.90;;;;;;5208006;23;20582;-96
2023/06/23 11:11:13;;;;;;;5.95;3.25;;;24.70;99.90;;;;;;4860467;29;20055;-96
2023/06/23 11:14:28;;;;;;;6.55;3.40;;;24.70;99.90;;;;;;4833883;29;20049;-96
2023/06/23 11:36:01;;;;;;;10.25;4.40;;;24.60;99.90;;;;;;4890930;23;20354;-96
2023/06/23 11:39:00;;;;;;;9.23;4.53;;;24.60;99.90;;;;;;5130366;23;20883;-89
2023/06/23 11:55:43;;;;;;;8.33;4.67;;;24.50;99.90;;;;;;4862547;29;20073;-96
2023/06/23 11:59:16;;;;;;;9.50;4.60;;;24.60;99.90;;;;;;4871411;29;21179;-95
2023/06/23 12:04:55;;;;;;;8.30;4.28;;;24.60;99.90;;;;;;4825258;29;20089;-94
2023/06/23 12:07:55;;;;;;;6.60;4.22;;;24.70;99.90;;;;;;4811942;29;20079;-95
2023/06/23 12:11:04;;;;;;;6.53;3.20;;;24.60;99.90;;;;;;4791095;29;20050;-94
2023/06/23 12:13:37;;;;;;;5.97;3.63;;;24.60;99.90;;;;;;4838778;29;20064;-95
2023/06/23 12:16:04;;;;;;;6.68;3.10;;;24.60;99.90;;;;;;4840895;29;20486;-95
2023/06/23 12:18:51;;;;;;;9.18;2.75;;;24.60;99.90;;;;;;4871569;29;20051;-96
2023/06/23 12:21:19;;;;;;;7.75;3.53;;;24.60;99.90;;;;;;4858227;29;20061;-95
2023/06/23 12:24:35;;;;;;;6.28;2.30;;;24.70;99.90;;;;;;4888587;23;20057;-95
2023/06/23 12:27:37;;;;;;;8.20;2.95;;;24.70;99.90;;;;;;4864796;29;20511;-96
2023/06/23 12:41:08;;;;;;;;;;;;;;;;;;;;;
2023/06/23 12:44:49;;;;;;;3.47;1.77;;;24.50;98.00;;;;;;4879678;29;20128;-96
2023/06/23 12:47:41;;;;;;;;;;;24.70;98.40;;;;;;4846919;29;20117;-95
2023/06/23 12:50:10;;;;;;;4.05;2.10;;;24.60;98.10;;;;;;4850580;29;19931;-95
2023/06/23 12:52:55;;;;;;;7.00;2.05;;;24.70;97.10;;;;;;4848803;29;20036;-96
2023/06/23 13:43:42;;;;;;;3.92;1.50;;;24.10;91.30;;;;;;5580959;23;20037;-96
2023/06/23 13:46:13;;;;;;;2.70;1.30;;;24.10;90.80;;;;;;5038872;23;20080;-95
2023/06/23 13:52:09;;;;;;;2.42;1.25;;;24.00;90.00;;;;;;4825548;29;20136;-94
2023/06/23 13:54:55;;;;;;;4.70;1.60;;;23.90;89.60;;;;;;4804381;29;20061;-96
2023/06/23 14:02:15;;;;;;;6.13;1.73;;;23.90;88.60;;;;;;4802210;29;20051;-94
2023/06/23 14:05:00;;;;;;;4.18;1.48;;;23.90;90.60;;;;;;4673939;30;20515;-94
2023/06/23 14:21:43;;;;;;;;;;;;;;;;;;;;;
2023/06/23 14:25:21;;;;;;;6.63;1.70;;;23.80;85.00;;;;;;4773650;29;20555;-96
2023/06/23 14:28:04;;;;;;;;;;;;;;;;;;;;;
2023/06/23 14:30:50;;;;;;;5.05;1.10;;;23.60;85.10;;;;;;4767171;30;20513;-94
2023/06/23 14:41:56;;;;;;;6.32;1.50;;;23.40;87.90;;;;;;4908873;29;20049;-96
2023/06/23 14:44:22;;;;;;;3.33;1.40;;;23.60;88.70;;;;;;4811520;29;20045;-95
2023/06/23 15:23:49;;;;;;;11.80;2.10;;;23.80;88.60;;;;;;4826518;29;20085;-96
2023/06/23 15:33:08;;;;;;;2.80;1.50;;;24.10;88.30;;;;;;4820724;29;20054;-96
2023/06/23 15:35:58;;;;;;;4.85;1.60;;;24.00;85.90;;;;;;4809170;29;20038;-95
2023/06/23 15:41:54;;;;;;;;;;;;;;;;;;;;;
2023/06/23 21:09:55;;;;;;;12.05;4.82;;;18.90;99.90;;;;;;4783227;29;20066;-96
